createdAt,value
2018-12-29T00:01:08.113Z,15.03
2018-12-29T00:03:36.314Z,16.27
2018-12-29T00:06:04.837Z,15.07
2018-12-29T00:08:33.087Z,15.50
2018-12-29T00:11:01.232Z,14.73
2018-12-29T00:13:29.367Z,15.23
2018-12-29T00:15:57.545Z,14.77
2018-12-29T00:18:25.747Z,13.23
2018-12-29T00:20:54.221Z,13.60
2018-12-29T00:23:22.693Z,14.83
2018-12-29T00:25:51.188Z,15.03
2018-12-29T00:28:19.367Z,12.83
2018-12-29T00:30:47.523Z,13.97
2018-12-29T00:33:15.661Z,12.33
2018-12-29T00:35:44.186Z,13.80
2018-12-29T00:38:12.319Z,13.53
2018-12-29T00:40:40.455Z,12.33
2018-12-29T00:43:08.638Z,14.17
2018-12-29T00:45:37.116Z,13.70
2018-12-29T00:48:05.285Z,13.67
2018-12-29T00:50:33.866Z,14.13
2018-12-29T00:53:02.042Z,13.93
2018-12-29T00:55:30.201Z,14.70
2018-12-29T00:57:58.329Z,14.47
2018-12-29T01:00:26.578Z,13.13
2018-12-29T01:02:54.707Z,14.37
2018-12-29T01:05:22.866Z,14.83
2018-12-29T01:07:51.364Z,15.00
2018-12-29T01:10:19.930Z,14.03
2018-12-29T01:12:48.406Z,13.90
2018-12-29T01:15:16.551Z,14.70
2018-12-29T01:17:45.093Z,14.70
2018-12-29T01:20:13.251Z,13.50
2018-12-29T01:22:41.442Z,15.00
2018-12-29T01:25:09.984Z,15.33
2018-12-29T01:27:38.466Z,14.80
2018-12-29T01:30:06.888Z,14.60
2018-12-29T01:32:35.347Z,14.53
2018-12-29T01:35:04.036Z,15.20
2018-12-29T01:37:32.245Z,14.67
2018-12-29T01:40:00.406Z,14.73
2018-12-29T01:42:28.922Z,15.53
2018-12-29T01:44:57.072Z,15.03
2018-12-29T01:47:25.218Z,16.23
2018-12-29T01:49:53.404Z,15.70
2018-12-29T01:52:21.587Z,15.47
2018-12-29T01:54:49.752Z,15.63
2018-12-29T01:57:18.220Z,15.47
2018-12-29T01:59:46.976Z,15.20
2018-12-29T02:02:15.115Z,14.23
2018-12-29T02:04:43.282Z,13.87
2018-12-29T02:07:11.440Z,13.57
2018-12-29T02:09:39.586Z,13.13
2018-12-29T02:12:07.730Z,15.80
2018-12-29T02:14:35.908Z,13.97
2018-12-29T02:17:04.101Z,14.80
2018-12-29T02:19:32.398Z,13.27
2018-12-29T02:22:00.535Z,13.90
2018-12-29T02:24:28.995Z,14.80
2018-12-29T02:26:57.526Z,14.07
2018-12-29T02:29:25.920Z,14.80
2018-12-29T02:31:54.058Z,14.03
2018-12-29T02:34:22.234Z,14.97
2018-12-29T02:36:50.742Z,15.57
2018-12-29T02:39:18.891Z,15.00
2018-12-29T02:41:47.436Z,15.70
2018-12-29T02:44:15.600Z,15.30
2018-12-29T02:46:44.094Z,15.20
2018-12-29T02:49:12.531Z,16.13
2018-12-29T02:51:40.711Z,16.37
2018-12-29T02:54:08.856Z,15.57
2018-12-29T02:56:37.004Z,15.60
2018-12-29T02:59:05.249Z,16.00
2018-12-29T03:01:33.734Z,16.30
2018-12-29T03:04:01.940Z,15.93
2018-12-29T03:06:30.139Z,16.63
2018-12-29T03:08:58.363Z,17.63
2018-12-29T03:11:26.540Z,17.80
2018-12-29T03:13:54.765Z,17.47
2018-12-29T03:16:22.940Z,15.47
2018-12-29T03:18:51.066Z,16.30
2018-12-29T03:21:19.208Z,16.60
2018-12-29T03:23:47.366Z,17.50
2018-12-29T03:26:15.848Z,17.23
2018-12-29T03:28:44.320Z,17.40
2018-12-29T03:31:12.821Z,17.13
2018-12-29T03:33:41.035Z,17.43
2018-12-29T03:36:09.464Z,17.03
2018-12-29T03:38:37.700Z,17.50
2018-12-29T03:41:05.840Z,16.87
2018-12-29T03:43:33.989Z,17.43
2018-12-29T03:46:02.174Z,16.47
2018-12-29T03:48:30.741Z,18.03
2018-12-29T03:50:59.234Z,17.20
2018-12-29T03:53:27.397Z,17.27
2018-12-29T03:55:55.534Z,17.40
2018-12-29T03:58:23.719Z,17.67
2018-12-29T04:00:51.889Z,17.60
2018-12-29T04:03:20.021Z,17.37
2018-12-29T04:05:48.189Z,18.17
2018-12-29T04:08:16.642Z,18.07
2018-12-29T04:10:45.428Z,17.07
2018-12-29T04:13:13.561Z,17.70
2018-12-29T04:15:41.977Z,17.93
2018-12-29T04:18:10.123Z,18.10
2018-12-29T04:20:38.269Z,19.30
2018-12-29T04:23:06.414Z,18.77
2018-12-29T04:25:34.575Z,18.43
2018-12-29T04:28:03.043Z,18.40
2018-12-29T04:30:31.199Z,17.33
2018-12-29T04:32:59.725Z,18.47
2018-12-29T04:35:27.926Z,20.00
2018-12-29T04:37:56.360Z,18.17
2018-12-29T04:40:24.843Z,18.67
2018-12-29T04:42:53.015Z,18.03
2018-12-29T04:45:21.170Z,18.03
2018-12-29T04:47:49.308Z,18.93
2018-12-29T04:50:17.830Z,18.40
2018-12-29T04:52:46.322Z,18.60
2018-12-29T04:55:14.479Z,18.70
2018-12-29T04:57:42.647Z,18.40
2018-12-29T05:00:10.790Z,20.73
2018-12-29T05:02:38.935Z,19.07
2018-12-29T05:05:07.409Z,18.53
2018-12-29T05:07:35.655Z,20.67
2018-12-29T05:10:04.687Z,19.57
2018-12-29T05:12:32.827Z,21.60
2018-12-29T05:15:01.005Z,24.27
2018-12-29T05:17:29.605Z,21.47
2018-12-29T05:19:57.754Z,21.27
2018-12-29T05:22:25.915Z,22.00
2018-12-29T05:24:54.048Z,21.93
2018-12-29T05:27:22.543Z,20.13
2018-12-29T05:29:50.973Z,18.70
2018-12-29T05:32:19.124Z,19.07
2018-12-29T05:34:47.376Z,20.07
2018-12-29T05:37:15.521Z,19.17
2018-12-29T05:39:43.695Z,19.17
2018-12-29T05:42:11.832Z,19.00
2018-12-29T05:44:39.998Z,21.63
2018-12-29T05:47:08.139Z,20.17
2018-12-29T05:49:36.273Z,19.97
2018-12-29T05:52:04.448Z,20.03
2018-12-29T05:54:32.914Z,20.80
2018-12-29T05:57:01.387Z,19.70
2018-12-29T05:59:29.538Z,21.23
2018-12-29T06:01:57.683Z,20.87
2018-12-29T06:04:25.873Z,22.17
2018-12-29T06:06:54.277Z,21.73
2018-12-29T06:09:22.473Z,22.13
2018-12-29T06:11:50.639Z,21.43
2018-12-29T06:14:18.782Z,20.87
2018-12-29T06:16:47.023Z,21.63
2018-12-29T06:19:15.520Z,20.60
2018-12-29T06:21:43.685Z,21.57
2018-12-29T06:24:12.119Z,21.47
2018-12-29T06:26:40.262Z,20.30
2018-12-29T06:29:08.422Z,21.70
2018-12-29T06:31:36.569Z,20.93
2018-12-29T06:34:04.740Z,24.03
2018-12-29T06:36:32.893Z,22.50
2018-12-29T06:39:01.073Z,21.97
2018-12-29T06:41:29.217Z,26.27
2018-12-29T06:43:57.370Z,26.93
2018-12-29T06:46:26.202Z,24.40
2018-12-29T06:48:54.341Z,24.13
2018-12-29T06:51:22.503Z,24.50
2018-12-29T06:53:50.651Z,22.67
2018-12-29T06:56:18.815Z,21.27
2018-12-29T06:58:47.324Z,22.90
2018-12-29T07:01:15.480Z,23.07
2018-12-29T07:03:43.649Z,22.67
2018-12-29T07:06:11.797Z,20.77
2018-12-29T07:08:39.997Z,24.17
2018-12-29T07:11:08.198Z,24.03
2018-12-29T07:13:36.658Z,24.40
2018-12-29T07:16:04.869Z,20.83
2018-12-29T07:18:33.004Z,21.70
2018-12-29T07:21:01.165Z,21.40
2018-12-29T07:23:29.674Z,21.43
2018-12-29T07:25:57.815Z,21.77
2018-12-29T07:28:25.966Z,20.90
2018-12-29T07:30:54.127Z,20.90
2018-12-29T07:33:22.300Z,20.33
2018-12-29T07:35:50.784Z,20.87
2018-12-29T07:38:18.931Z,21.27
2018-12-29T07:40:47.085Z,21.60
2018-12-29T07:43:15.228Z,20.37
2018-12-29T07:45:43.385Z,19.47
2018-12-29T07:48:11.568Z,19.90
2018-12-29T07:50:40.106Z,20.07
2018-12-29T07:53:08.265Z,20.73
2018-12-29T07:55:36.423Z,19.70
2018-12-29T07:58:04.572Z,22.67
2018-12-29T08:00:32.725Z,23.10
2018-12-29T08:03:00.899Z,22.37
2018-12-29T08:05:29.376Z,20.50
2018-12-29T08:07:57.515Z,19.27
2018-12-29T08:10:25.696Z,18.70
2018-12-29T08:12:53.829Z,19.30
2018-12-29T08:15:21.986Z,19.10
2018-12-29T08:17:50.434Z,20.33
2018-12-29T08:20:18.579Z,20.20
2018-12-29T08:22:46.727Z,20.17
2018-12-29T08:25:14.894Z,18.40
2018-12-29T08:27:43.052Z,18.40
2018-12-29T08:30:11.221Z,17.03
2018-12-29T08:32:39.382Z,17.07
2018-12-29T08:35:08.273Z,17.00
2018-12-29T08:37:36.455Z,18.33
2018-12-29T08:40:05.056Z,18.37
2018-12-29T08:42:33.201Z,17.53
2018-12-29T08:45:01.382Z,18.10
2018-12-29T08:47:29.560Z,17.80
2018-12-29T08:49:58.052Z,17.67
2018-12-29T08:52:26.177Z,19.13
2018-12-29T08:54:54.384Z,19.10
2018-12-29T08:57:22.869Z,19.53
2018-12-29T08:59:51.358Z,19.13
2018-12-29T09:02:19.493Z,20.20
2018-12-29T09:04:47.647Z,19.93
2018-12-29T09:07:15.775Z,20.20
2018-12-29T09:09:43.969Z,19.47
2018-12-29T09:12:12.090Z,18.50
2018-12-29T09:14:40.555Z,18.40
2018-12-29T09:17:12.177Z,18.73
2018-12-29T09:19:38.606Z,19.70
2018-12-29T09:22:06.757Z,20.10
2018-12-29T09:24:34.992Z,18.93
2018-12-29T09:27:03.141Z,19.20
2018-12-29T09:29:31.289Z,18.50
2018-12-29T09:31:59.519Z,19.13
2018-12-29T09:34:27.696Z,20.13
2018-12-29T09:36:55.828Z,19.43
2018-12-29T09:39:23.986Z,19.77
2018-12-29T09:41:52.142Z,19.73
2018-12-29T09:44:20.309Z,19.10
2018-12-29T09:46:48.482Z,20.67
2018-12-29T09:49:16.684Z,20.10
2018-12-29T09:51:45.247Z,19.73
2018-12-29T09:54:13.471Z,18.10
2018-12-29T09:56:41.641Z,19.27
2018-12-29T09:59:09.805Z,17.43
2018-12-29T10:01:37.968Z,18.27
2018-12-29T10:04:06.144Z,17.90
2018-12-29T10:06:34.285Z,18.67
2018-12-29T10:09:04.195Z,17.57
2018-12-29T10:11:32.371Z,16.43
2018-12-29T10:14:00.531Z,16.67
2018-12-29T10:16:28.668Z,16.97
2018-12-29T10:18:57.110Z,16.77
2018-12-29T10:21:25.271Z,15.93
2018-12-29T10:23:53.437Z,17.37
2018-12-29T10:26:21.596Z,16.10
2018-12-29T10:28:49.742Z,16.87
2018-12-29T10:31:17.896Z,17.07
2018-12-29T10:33:46.102Z,17.27
2018-12-29T10:36:14.233Z,17.00
2018-12-29T10:38:42.382Z,18.37
2018-12-29T10:41:10.570Z,17.27
2018-12-29T10:43:38.727Z,17.40
2018-12-29T10:46:07.195Z,17.50
2018-12-29T10:48:35.361Z,16.47
2018-12-29T10:51:03.505Z,17.87
2018-12-29T10:53:31.681Z,16.97
2018-12-29T10:56:00.106Z,18.07
2018-12-29T10:58:28.276Z,19.40
2018-12-29T11:00:56.526Z,16.23
2018-12-29T11:03:24.721Z,17.87
2018-12-29T11:05:52.900Z,17.43
2018-12-29T11:08:21.032Z,18.50
2018-12-29T11:10:49.192Z,18.23
2018-12-29T11:13:17.669Z,17.60
2018-12-29T11:15:46.173Z,17.67
2018-12-29T11:18:14.338Z,17.17
2018-12-29T11:20:43.189Z,19.00
2018-12-29T11:23:11.691Z,17.30
2018-12-29T11:25:39.839Z,18.60
2018-12-29T11:28:08.250Z,17.93
2018-12-29T11:30:36.417Z,18.87
2018-12-29T11:33:04.605Z,18.03
2018-12-29T11:35:32.731Z,17.30
2018-12-29T11:38:01.144Z,18.63
2018-12-29T11:40:29.289Z,17.53
2018-12-29T11:42:57.455Z,17.77
2018-12-29T11:45:25.613Z,18.47
2018-12-29T11:47:54.087Z,17.20
2018-12-29T11:50:22.262Z,16.57
2018-12-29T11:52:50.392Z,16.87
2018-12-29T11:55:18.648Z,17.97
2018-12-29T11:57:47.137Z,17.53
2018-12-29T12:00:15.559Z,17.70
2018-12-29T12:02:43.786Z,17.60
2018-12-29T12:05:12.026Z,16.83
2018-12-29T12:07:40.496Z,16.90
2018-12-29T12:10:08.718Z,17.13
2018-12-29T12:12:37.049Z,16.87
2018-12-29T12:15:05.763Z,17.47
2018-12-29T12:17:34.030Z,17.10
2018-12-29T12:20:02.249Z,17.27
2018-12-29T12:22:30.796Z,16.53
2018-12-29T12:24:59.336Z,19.87
2018-12-29T12:27:27.637Z,17.43
2018-12-29T12:29:56.182Z,17.03
2018-12-29T12:32:24.426Z,17.77
2018-12-29T12:34:53.114Z,17.20
2018-12-29T12:37:21.338Z,17.23
2018-12-29T12:39:49.861Z,16.27
2018-12-29T12:42:18.072Z,16.77
2018-12-29T12:44:46.247Z,16.47
2018-12-29T12:47:14.458Z,16.87
2018-12-29T12:49:42.630Z,17.70
2018-12-29T12:52:10.835Z,16.77
2018-12-29T12:54:40.793Z,17.13
2018-12-29T12:57:09.993Z,16.67
2018-12-29T12:59:38.456Z,16.93
2018-12-29T13:02:06.653Z,16.57
2018-12-29T13:04:34.829Z,16.47
2018-12-29T13:07:02.998Z,16.67
2018-12-29T13:09:31.557Z,16.40
2018-12-29T13:12:00.039Z,16.43
2018-12-29T13:14:28.278Z,16.97
2018-12-29T13:16:56.766Z,16.97
2018-12-29T13:19:28.511Z,15.90
2018-12-29T13:21:54.938Z,16.40
2018-12-29T13:24:23.433Z,17.37
2018-12-29T13:26:52.024Z,17.83
2018-12-29T13:29:20.178Z,16.07
2018-12-29T13:31:48.408Z,16.67
2018-12-29T13:34:16.552Z,16.00
2018-12-29T13:36:44.797Z,17.20
2018-12-29T13:39:12.957Z,17.30
2018-12-29T13:41:45.286Z,17.30
2018-12-29T13:44:13.742Z,16.63
2018-12-29T13:46:41.898Z,16.60
2018-12-29T13:49:10.466Z,16.93
2018-12-29T13:51:38.683Z,19.20
2018-12-29T13:54:06.857Z,17.53
2018-12-29T13:56:35.053Z,18.23
2018-12-29T13:59:03.328Z,17.77
2018-12-29T14:01:31.546Z,18.77
2018-12-29T14:03:59.770Z,16.63
2018-12-29T14:06:28.021Z,18.83
2018-12-29T14:08:56.188Z,19.50
2018-12-29T14:11:24.318Z,19.13
2018-12-29T14:13:52.813Z,19.70
2018-12-29T14:16:21.335Z,19.07
2018-12-29T14:18:49.565Z,18.03
2018-12-29T14:21:18.087Z,18.27
2018-12-29T14:23:46.314Z,20.10
2018-12-29T14:26:14.836Z,18.77
2018-12-29T14:28:43.081Z,18.13
2018-12-29T14:31:11.241Z,18.20
2018-12-29T14:33:39.507Z,17.70
2018-12-29T14:36:07.709Z,18.47
2018-12-29T14:38:35.910Z,17.97
2018-12-29T14:41:04.133Z,16.70
2018-12-29T14:43:32.271Z,17.43
2018-12-29T14:46:00.535Z,17.63
2018-12-29T14:48:35.693Z,17.90
2018-12-29T14:50:58.638Z,17.23
2018-12-29T14:53:26.879Z,17.20
2018-12-29T14:55:55.379Z,16.53
2018-12-29T14:58:23.538Z,16.63
2018-12-29T15:00:51.786Z,15.33
2018-12-29T15:03:19.917Z,16.23
2018-12-29T15:05:48.101Z,15.97
2018-12-29T15:08:16.310Z,16.20
2018-12-29T15:10:44.486Z,16.37
2018-12-29T15:13:12.902Z,17.03
2018-12-29T15:15:41.149Z,15.63
2018-12-29T15:18:10.048Z,14.73
2018-12-29T15:20:38.555Z,15.43
2018-12-29T15:23:07.177Z,15.27
2018-12-29T15:25:35.381Z,15.83
2018-12-29T15:28:03.623Z,16.03
2018-12-29T15:30:32.139Z,15.73
2018-12-29T15:33:00.375Z,16.50
2018-12-29T15:35:28.923Z,16.13
2018-12-29T15:37:57.447Z,15.90
2018-12-29T15:40:25.666Z,16.70
2018-12-29T15:42:53.915Z,17.03
2018-12-29T15:45:22.215Z,17.07
2018-12-29T15:47:50.707Z,17.33
2018-12-29T15:50:18.915Z,16.03
2018-12-29T15:52:47.462Z,17.20
2018-12-29T15:55:15.921Z,17.37
2018-12-29T15:57:44.159Z,17.63
2018-12-29T16:00:12.746Z,16.97
2018-12-29T16:02:41.276Z,16.57
2018-12-29T16:05:09.894Z,16.33
2018-12-29T16:07:38.830Z,16.20
2018-12-29T16:10:07.619Z,16.53
2018-12-29T16:12:36.357Z,16.57
2018-12-29T16:15:05.177Z,16.37
2018-12-29T16:17:33.420Z,15.90
2018-12-29T16:20:01.636Z,16.60
2018-12-29T16:22:29.860Z,14.70
2018-12-29T16:24:58.071Z,15.40
2018-12-29T16:27:26.330Z,16.23
2018-12-29T16:29:54.535Z,17.10
2018-12-29T16:32:22.770Z,16.73
2018-12-29T16:34:51.303Z,15.07
2018-12-29T16:37:19.902Z,14.17
2018-12-29T16:39:48.156Z,15.30
2018-12-29T16:42:16.372Z,15.43
2018-12-29T16:44:44.592Z,13.60
2018-12-29T16:47:12.813Z,14.37
2018-12-29T16:49:41.710Z,14.63
2018-12-29T16:52:09.952Z,12.80
2018-12-29T16:54:39.805Z,13.97
2018-12-29T16:57:08.390Z,13.97
2018-12-29T16:59:36.702Z,14.00
2018-12-29T17:02:04.926Z,13.83
2018-12-29T17:04:33.144Z,13.50
2018-12-29T17:07:01.397Z,15.43
2018-12-29T17:09:29.954Z,12.90
2018-12-29T17:11:58.217Z,14.53
2018-12-29T17:14:26.446Z,13.20
2018-12-29T17:16:54.983Z,14.83
2018-12-29T17:19:23.490Z,14.10
2018-12-29T17:21:51.685Z,15.20
2018-12-29T17:24:19.939Z,19.57
2018-12-29T17:26:48.152Z,17.63
2018-12-29T17:29:17.077Z,17.63
2018-12-29T17:31:45.301Z,20.80
2018-12-29T17:34:13.555Z,21.77
2018-12-29T17:36:42.212Z,23.87
2018-12-29T17:39:10.530Z,25.37
2018-12-29T17:41:39.124Z,26.23
2018-12-29T17:44:07.332Z,27.57
2018-12-29T17:46:35.849Z,29.67
2018-12-29T17:49:04.499Z,27.23
2018-12-29T17:51:32.630Z,29.60
2018-12-29T17:54:01.213Z,30.37
2018-12-29T17:56:29.923Z,29.97
2018-12-29T17:58:58.464Z,29.07
2018-12-29T18:01:26.672Z,27.23
2018-12-29T18:03:55.221Z,30.03
2018-12-29T18:06:24.095Z,27.77
2018-12-29T18:08:52.606Z,26.37
2018-12-29T18:11:21.192Z,26.70
2018-12-29T18:13:49.398Z,25.80
2018-12-29T18:16:18.350Z,29.77
2018-12-29T18:18:46.566Z,28.47
2018-12-29T18:21:14.802Z,24.50
2018-12-29T18:23:43.399Z,24.23
2018-12-29T18:26:11.605Z,26.63
2018-12-29T18:28:39.836Z,25.20
2018-12-29T18:31:08.360Z,23.97
2018-12-29T18:33:37.293Z,23.07
2018-12-29T18:36:05.701Z,24.17
2018-12-29T18:38:34.248Z,23.47
2018-12-29T18:41:02.462Z,22.13
2018-12-29T18:43:30.747Z,22.53
2018-12-29T18:45:58.972Z,23.17
2018-12-29T18:48:27.208Z,20.80
2018-12-29T18:50:56.078Z,21.37
2018-12-29T18:53:24.609Z,22.47
2018-12-29T18:55:52.888Z,20.67
2018-12-29T18:58:21.112Z,20.43
2018-12-29T19:00:49.330Z,21.23
2018-12-29T19:03:17.891Z,22.07
2018-12-29T19:05:46.165Z,21.13
2018-12-29T19:08:14.682Z,21.40
2018-12-29T19:10:43.038Z,22.03
2018-12-29T19:13:11.815Z,21.20
2018-12-29T19:15:40.695Z,21.33
2018-12-29T19:18:08.919Z,21.17
2018-12-29T19:20:37.137Z,22.20
2018-12-29T19:23:05.697Z,20.37
2018-12-29T19:25:33.954Z,21.40
2018-12-29T19:28:02.921Z,21.43
2018-12-29T19:30:31.458Z,22.37
2018-12-29T19:32:59.872Z,21.13
2018-12-29T19:35:28.149Z,22.60
2018-12-29T19:37:56.359Z,22.27
2018-12-29T19:40:25.355Z,23.97
2018-12-29T19:42:54.037Z,23.83
2018-12-29T19:45:22.634Z,22.50
2018-12-29T19:47:51.618Z,22.23
2018-12-29T19:50:20.301Z,21.77
2018-12-29T19:52:48.555Z,20.53
2018-12-29T19:55:16.759Z,21.60
2018-12-29T19:57:44.939Z,20.77
2018-12-29T20:00:13.620Z,19.00
2018-12-29T20:02:42.303Z,19.60
2018-12-29T20:05:10.713Z,20.00
2018-12-29T20:07:38.902Z,20.20
2018-12-29T20:10:07.419Z,18.70
2018-12-29T20:12:35.896Z,19.13
2018-12-29T20:15:05.610Z,18.43
2018-12-29T20:17:34.994Z,18.73
2018-12-29T20:20:04.797Z,19.13
2018-12-29T20:22:33.017Z,17.77
2018-12-29T20:25:01.232Z,17.53
2018-12-29T20:27:29.485Z,17.53
2018-12-29T20:29:58.040Z,18.57
2018-12-29T20:32:26.617Z,17.40
2018-12-29T20:34:55.417Z,18.63
2018-12-29T20:37:23.992Z,17.03
2018-12-29T20:39:52.857Z,17.83
2018-12-29T20:42:21.468Z,17.40
2018-12-29T20:44:50.016Z,17.20
2018-12-29T20:47:18.634Z,15.60
2018-12-29T20:49:47.231Z,16.83
2018-12-29T20:52:15.822Z,15.50
2018-12-29T20:54:44.094Z,14.93
2018-12-29T20:57:12.937Z,14.63
2018-12-29T20:59:41.525Z,13.77
2018-12-29T21:02:09.798Z,14.10
2018-12-29T21:04:38.345Z,13.57
2018-12-29T21:07:06.917Z,13.23
2018-12-29T21:09:35.846Z,12.63
2018-12-29T21:12:04.385Z,12.23
2018-12-29T21:14:32.963Z,12.03
2018-12-29T21:17:01.454Z,13.23
2018-12-29T21:19:30.028Z,12.97
2018-12-29T21:21:58.270Z,12.23
2018-12-29T21:24:26.961Z,12.60
2018-12-29T21:26:55.180Z,13.70
2018-12-29T21:29:23.812Z,12.97
2018-12-29T21:31:52.055Z,13.07
2018-12-29T21:34:20.952Z,14.03
2018-12-29T21:36:49.551Z,13.93
2018-12-29T21:39:18.401Z,13.80
2018-12-29T21:41:47.032Z,13.60
2018-12-29T21:44:15.593Z,15.37
2018-12-29T21:46:44.190Z,14.50
2018-12-29T21:49:12.436Z,15.00
2018-12-29T21:51:40.975Z,15.00
2018-12-29T21:54:09.508Z,14.90
2018-12-29T21:56:38.074Z,15.70
2018-12-29T21:59:06.340Z,14.77
2018-12-29T22:01:34.817Z,14.23
2018-12-29T22:04:03.425Z,14.30
2018-12-29T22:06:32.034Z,14.63
2018-12-29T22:09:00.605Z,13.73
2018-12-29T22:11:28.852Z,12.63
2018-12-29T22:13:57.423Z,13.53
2018-12-29T22:16:25.977Z,13.43
2018-12-29T22:18:54.555Z,13.13
2018-12-29T22:21:23.033Z,13.50
2018-12-29T22:23:51.625Z,12.50
2018-12-29T22:26:20.438Z,12.27
2018-12-29T22:28:48.979Z,12.67
2018-12-29T22:31:17.493Z,12.07
2018-12-29T22:33:46.334Z,11.63
2018-12-29T22:36:14.946Z,11.53
2018-12-29T22:38:43.166Z,11.63
2018-12-29T22:41:11.785Z,11.20
2018-12-29T22:43:39.995Z,11.57
2018-12-29T22:46:08.465Z,11.67
2018-12-29T22:48:37.057Z,11.10
2018-12-29T22:51:05.272Z,10.63
2018-12-29T22:53:33.816Z,11.07
2018-12-29T22:56:02.000Z,10.10
2018-12-29T22:58:30.600Z,11.00
2018-12-29T23:01:00.624Z,11.37
2018-12-29T23:03:29.903Z,11.23
2018-12-29T23:05:58.448Z,12.40
2018-12-29T23:08:27.040Z,12.60
2018-12-29T23:10:56.032Z,13.00
2018-12-29T23:13:24.936Z,12.40
2018-12-29T23:15:53.488Z,12.57
2018-12-29T23:18:22.003Z,13.47
2018-12-29T23:20:50.595Z,14.43
2018-12-29T23:23:19.177Z,13.27
2018-12-29T23:25:48.053Z,12.60
2018-12-29T23:28:16.615Z,13.23
2018-12-29T23:30:45.263Z,13.33
2018-12-29T23:33:13.496Z,12.70
2018-12-29T23:35:41.713Z,13.13
2018-12-29T23:38:10.970Z,13.40
2018-12-29T23:40:39.549Z,14.23
2018-12-29T23:43:08.099Z,13.67
2018-12-29T23:45:36.973Z,14.13
2018-12-29T23:48:05.557Z,14.97
2018-12-29T23:50:33.776Z,13.73
2018-12-29T23:53:02.669Z,15.77
2018-12-29T23:55:31.298Z,13.57
2018-12-29T23:57:59.903Z,13.43
